首页
METAR-TAF:

METAR-TAF

机场 :

克洛维 / Cannon, 新墨西哥州, 美国

纬度: 34-23N, 经度: 103-19W, 海拔: 1309米

当前天气观测

该预报发布于29分钟前的16:55 UTC
风速10节,风向南转西南
温度 32°C
湿度 26%
气压 1019 hPa
能見度: 16.1公里
天空无云

METAR: KCVS 241655Z 21010KT 10SM CLR 32/10 A3008 RMK AO2A SLP113 T03220102 $

时间: 11:24 (17:24 UTC)

预报

该预报发布于7小时和24分钟前的10:00 UTC
预报有效从24日的 10点(UTC)到 25日的 16点(UTC)
风速6节,风向南转西南
能见度10公里或以上
散云层高于12000英尺
成为
从 24日的 14点(UTC)到 24日的 15点(UTC)
风速10节,风向南转西南,有时为15节阵风
能见度10公里或以上
散云层高于10000英尺
成为
从 24日的 19点(UTC)到 24日的 20点(UTC)
风速8节,风向
能见度10公里或以上
散云层高于12000英尺
成为
从 25日的 13点(UTC)到 25日的 14点(UTC)
风速12节,风向南转西南,有时为18节阵风
能见度10公里或以上
少量云层高于10000英尺

TAF: KCVS 241000Z 2410/2516 20006KT 9999 SCT120 QNH3007INS BECMG 2414/2415 20010G15KT 9999 SCT100 QNH3002INS BECMG 2419/2420 18008KT 9999 SCT120 QNH2992INS BECMG 2513/2514 21012G18KT 9999 FEW100 QNH3002INS TX26/2422Z TN19/2412Z

超过4000个机场的气象观测和天气预报(METAR&TAF报告)。

可查询的气象台以黄色和红色小点在地图上表示。

将鼠标移到小点上方,可查看气象台名称。

然后点击查看天气观测和预报。

如需切换地图:点击带黑十字的绿色按钮放大地图;点击带横线的绿色按钮缩小地图;或者点击绿色箭头查看邻近地区的地图。


METAR-TAF: